Número do voo
TLA1589
Partida Destino
Eduardo Gomes International Airport (SBEG) Ver Cartas Aéreas

Tabatinga Airport (SBTT) Ver Cartas Aéreas

Hora de Partida Hora de Chegada
09:45 12:30
Aeronave Distância
B733 609nm
METAR do Aeroporto de Partida METAR do Aeroporto de Destino
SBEG 260700Z 03002KT CAVOK 25/23 Q1010 SBTT 252300Z 00000KT 9999 FEW015 SCT080 27/24 Q1007
Rota

UA566

SkyVector

 

Notas

Dados adicionais









Copyright © 2020 Todos os direitos reservados. Tropical Linhas Aereas Virtuais

Cms by phpVMS